Date,TemperatureHighF,TemperatureAvgF,TemperatureLowF,DewpointHighF,DewpointAvgF,DewpointLowF,HumidityHigh,HumidityAvg,HumidityLow,PressureMaxIn,PressureMinIn,WindSpeedMaxMPH,WindSpeedAvgMPH,GustSpeedMaxMPH,PrecipitationSumIn
2012-1-1,69.8,62.8,50.0,69.2,51.3,35.0,98,70,37,30.20,29.91,11,4,0,0.04
2012-1-2,59.0,46.4,33.8,35.0,22.8,-42.6,80,50,1,30.33,30.17,10,3,0,0.00
2012-1-3,55.4,38.2,28.4,28.0,8.0,-50.3,83,49,1,30.33,30.10,8,2,0,0.00
2012-1-4,66.2,48.1,28.4,54.2,40.6,24.2,98,77,55,30.11,29.95,11,2,0,0.00
2012-1-5,73.4,54.9,42.8,56.4,49.4,42.3,98,84,51,29.98,29.84,6,1,0,0.00
2012-1-6,73.4,58.0,46.4,62.6,53.3,45.6,98,86,59,29.86,29.73,9,2,0,0.00
2012-1-7,77.0,62.8,48.2,64.0,56.9,47.7,98,83,56,29.81,29.71,10,2,0,0.00
2012-1-8,78.8,66.5,59.0,68.5,61.1,-39.3,98,86,59,29.86,29.72,10,2,0,0.15
2012-1-9,73.4,65.5,57.2,67.2,62.8,56.6,98,91,76,29.81,29.66,9,3,0,0.42
2012-1-10,73.4,62.9,50.0,69.5,61.3,18.9,98,93,82,29.67,29.48,12,4,0,0.62
2012-1-11,66.2,53.8,46.4,51.5,46.3,42.6,94,77,48,29.60,29.49,11,4,0,0.00
2012-1-12,53.6,46.1,33.8,47.7,28.5,19.5,98,54,27,29.99,29.50,14,4,0,0.00
2012-1-13,51.8,36.9,26.6,27.4,21.2,8.5,91,59,24,30.11,29.99,8,1,0,0.00
2012-1-14,64.4,44.0,26.6,39.1,27.6,-39.3,94,63,1,30.18,30.06,9,2,0,0.00
2012-1-15,68.0,48.8,32.0,47.2,38.4,31.0,98,72,30,30.23,30.09,6,2,0,0.00
2012-1-16,73.4,63.4,50.0,63.0,57.0,45.8,95,81,64,30.08,29.87,12,4,0,0.00
2012-1-17,71.6,66.6,57.2,69.5,64.9,51.8,98,94,82,29.88,29.75,14,4,0,1.39
2012-1-18,62.6,49.3,39.2,49.7,38.7,34.9,97,70,36,30.02,29.84,12,3,0,0.00
2012-1-19,69.8,57.4,37.4,61.9,51.5,-99.9,98,87,75,29.84,29.70,6,-25,0,0.00
2012-1-20,78.8,71.1,62.6,71.3,67.8,62.0,98,90,71,29.74,29.64,17,6,0,0.00
2012-1-21,68.0,38.7,66.2,67.4,-4.4,-99.9,98,56,98,29.71,29.70,4,-427,0,0.07
2012-1-22,78.8,70.3,68.0,72.1,65.5,-99.9,98,90,73,29.95,29.63,17,-18,0,0.02
2012-1-23,78.8,69.6,59.0,71.0,59.0,41.9,98,72,41,30.03,29.94,10,4,0,0.21
2012-1-24,64.4,56.8,51.8,54.5,46.4,38.1,98,70,44,30.07,29.96,9,4,0,1.51
2012-1-25,80.6,68.9,59.0,70.7,65.9,55.1,98,91,66,29.95,29.74,19,4,0,0.47
2012-1-26,64.4,62.8,60.8,63.8,62.2,60.2,98,98,98,29.83,29.80,9,4,0,2.19
2012-1-27,68.0,54.1,42.8,44.7,38.1,-99.9,95,62,36,30.07,29.96,4,-23,0,0.00
2012-1-28,68.0,51.6,41.0,52.8,41.7,32.4,98,72,42,30.24,30.05,12,3,0,0.00
2012-1-29,64.4,47.9,35.6,37.1,26.9,-39.3,90,55,1,30.31,30.18,8,2,0,0.24
2012-1-30,66.2,51.3,35.6,52.8,43.5,34.0,97,77,48,30.19,30.04,7,2,0,0.00
2012-1-31,78.8,64.5,53.6,66.2,59.3,50.7,98,85,60,30.05,29.90,9,3,0,0.00
2012-2-1,68.0,65.5,62.6,67.4,64.7,61.7,98,97,92,29.94,29.83,7,2,0,0.57
2012-2-2,75.2,64.5,60.8,69.2,59.2,-99.9,98,91,78,29.96,29.85,9,-31,0,0.02
2012-2-3,77.0,68.3,64.4,69.2,66.0,63.8,98,93,70,29.94,29.85,10,4,0,0.00
2012-2-4,77.0,67.0,60.8,71.4,65.5,60.2,98,95,79,29.94,29.85,10,2,0,0.42
2012-2-5,60.8,57.0,50.0,60.2,54.3,46.6,98,91,81,30.04,29.91,10,4,0,0.56
2012-2-6,64.4,53.7,44.6,48.1,45.4,41.0,93,75,52,30.07,29.94,10,4,0,0.00
2012-2-7,71.6,56.7,42.8,49.2,45.9,41.7,97,70,42,30.01,29.89,8,3,0,0.00
2012-2-8,64.4,56.1,48.2,47.9,43.2,40.3,81,64,42,30.11,29.99,10,4,0,0.00
2012-2-9,62.6,51.6,41.0,48.6,42.0,38.0,95,71,51,30.09,29.92,9,3,0,0.01
2012-2-10,51.8,48.2,42.8,51.3,47.7,42.3,98,98,94,29.93,29.79,4,2,0,0.89
2012-2-11,50.0,42.6,32.0,45.9,29.2,-99.9,98,64,32,30.11,29.90,16,-5,0,0.00
2012-2-12,50.0,38.0,28.4,33.0,21.7,15.9,84,55,26,30.13,29.86,11,4,0,0.00
2012-2-13,60.8,48.5,37.4,55.5,36.8,-99.9,98,69,51,29.93,29.48,10,-18,0,0.56
2012-2-14,69.8,58.0,48.2,56.6,52.9,47.7,98,85,51,30.01,29.90,7,2,0,0.00
2012-2-15,73.4,61.7,50.0,69.2,59.3,48.9,98,92,73,30.03,29.85,8,4,0,1.24
2012-2-16,71.6,66.2,59.0,69.2,63.1,56.4,98,90,73,30.06,29.92,9,3,0,0.00
2012-2-17,73.4,62.5,53.6,61.2,56.3,51.0,98,82,58,30.02,29.87,8,3,0,0.01
2012-2-18,60.8,57.8,55.4,60.2,57.2,54.8,98,98,98,29.89,29.62,12,4,0,4.15
2012-2-19,60.8,51.9,41.0,56.6,48.1,40.5,98,88,65,30.08,29.69,11,4,0,0.02
2012-2-20,64.4,52.0,37.4,51.3,44.9,36.9,98,79,49,30.14,30.03,9,2,0,0.00
2012-2-21,77.0,61.2,50.0,60.9,55.5,49.5,98,83,55,30.12,29.93,6,1,0,0.00
2012-2-22,80.6,66.6,53.6,71.1,63.3,53.0,98,90,67,29.93,29.61,15,4,0,0.00
2012-2-23,78.8,72.0,69.8,71.1,68.7,67.0,95,90,73,29.66,29.57,19,8,0,0.02
2012-2-24,71.6,62.8,51.8,71.0,44.1,24.8,98,56,25,30.25,29.64,17,6,0,0.00
2012-2-25,62.6,53.3,44.6,39.6,27.9,-10.5,63,40,5,30.35,30.18,7,3,0,0.00
2012-2-26,62.6,55.1,46.4,55.8,47.6,38.8,98,77,61,30.20,30.10,8,3,0,0.00
2012-2-27,60.8,58.3,53.6,60.2,57.1,53.0,98,96,89,30.20,30.11,11,4,0,0.00
2012-2-28,80.6,68.8,60.8,73.8,66.2,60.2,98,92,70,30.13,29.98,10,3,0,0.05
2012-2-29,80.6,73.8,69.8,71.8,69.6,64.9,98,88,59,29.98,29.85,13,4,0,0.00
2012-3-1,82.4,73.7,69.8,72.8,69.5,66.2,98,88,63,29.88,29.71,12,4,0,0.00
2012-3-2,84.2,75.1,69.8,73.8,70.5,68.3,98,86,63,29.73,29.60,17,6,0,0.00
2012-3-3,73.4,53.5,41.0,71.6,50.1,38.7,98,89,65,30.00,29.62,10,4,0,0.75
2012-3-4,69.8,53.3,35.6,45.8,37.2,27.3,98,63,23,30.15,30.00,10,2,0,0.10
2012-3-5,80.6,61.6,44.6,54.2,45.4,37.9,98,63,23,30.28,30.16,8,2,0,0.00
2012-3-6,77.0,60.7,44.6,61.2,53.1,44.1,98,79,43,30.26,30.12,9,3,0,0.00
2012-3-7,80.6,68.1,57.2,68.6,63.2,56.6,98,86,57,30.13,30.01,10,3,0,0.00
2012-3-8,82.4,74.0,64.4,72.5,69.4,63.8,98,87,64,30.03,29.91,11,4,0,0.00
2012-3-9,71.6,61.0,55.4,71.0,59.7,47.3,98,96,74,30.21,29.95,9,4,0,0.94
2012-3-10,68.0,59.0,51.8,59.4,47.8,41.6,95,67,53,30.16,30.03,8,3,0,0.00
2012-3-11,78.8,68.0,60.8,69.3,65.2,59.7,98,91,72,30.05,29.92,9,4,0,0.60
2012-3-12,68.0,64.4,59.0,67.4,63.8,58.4,98,98,96,30.03,29.92,13,3,0,2.07
2012-3-13,86.0,70.3,57.2,73.2,66.6,56.6,98,89,61,30.08,29.96,5,1,0,0.42
2012-3-14,86.0,72.7,64.4,72.5,68.2,63.8,98,87,56,30.09,29.98,5,1,0,0.00
2012-3-15,86.0,71.3,60.8,72.8,65.6,60.2,98,84,56,30.11,29.98,9,2,0,0.00
2012-3-16,86.0,71.3,50.0,72.8,64.1,46.3,98,81,49,30.06,29.94,7,1,0,0.00
2012-3-17,84.2,70.4,59.0,72.8,65.3,58.4,98,85,57,30.03,29.91,8,1,0,0.00
2012-3-18,84.2,73.2,62.6,73.0,67.5,62.0,98,84,59,30.00,29.90,10,2,0,0.09
2012-3-19,80.6,72.6,66.2,72.1,68.1,64.9,98,87,59,29.93,29.74,10,3,0,0.00
2012-3-20,80.6,73.8,69.8,72.7,70.2,68.0,98,89,67,29.74,29.64,9,4,0,0.05
2012-3-21,73.4,63.8,55.4,71.6,62.8,54.8,98,97,92,29.85,29.59,8,3,0,4.28
2012-3-22,73.4,61.3,51.8,62.2,57.4,51.3,98,88,62,29.87,29.77,6,2,0,0.59
2012-3-23,84.2,68.1,59.0,66.5,59.7,50.4,98,79,33,29.86,29.76,5,1,0,0.00
2012-3-24,82.4,65.9,51.8,61.9,55.7,50.8,98,74,38,29.84,29.75,10,2,0,0.00
2012-3-25,84.2,64.4,50.0,63.0,51.8,-99.9,98,73,35,29.88,29.77,8,-10,0,0.00
2012-3-26,86.7,70.4,55.6,66.2,61.4,55.0,98,77,46,29.91,29.80,7,1,0,0.00
2012-3-27,86.7,74.1,57.6,67.9,61.9,-99.9,98,72,47,29.96,29.85,7,2,0,0.00
2012-3-28,85.5,71.0,58.5,69.8,64.5,57.9,98,82,49,29.97,29.82,5,2,0,0.00
2012-3-29,83.7,70.6,59.9,72.3,65.9,59.3,98,87,54,29.85,29.70,8,1,0,0.05
2012-3-30,84.2,72.4,64.6,72.5,67.3,64.0,98,86,56,29.77,29.65,7,2,0,0.32
2012-3-31,88.9,74.8,62.6,71.4,67.8,62.0,98,81,51,29.79,29.68,9,2,0,0.00
2012-4-1,88.5,75.9,65.1,72.9,69.6,64.5,98,83,52,29.75,29.63,7,2,0,0.00
2012-4-2,86.0,69.8,64.2,75.4,67.3,63.6,98,93,60,29.71,29.61,6,2,0,1.06
2012-4-3,88.0,74.1,60.6,73.7,68.0,60.1,98,83,56,29.76,29.65,5,2,0,0.00
2012-4-4,81.1,69.6,62.8,71.8,66.8,62.2,98,91,72,29.78,29.58,15,3,0,2.73
2012-4-5,84.0,72.6,62.6,73.4,67.2,61.0,98,85,59,29.68,29.56,9,2,0,0.02
2012-4-6,82.2,68.1,54.0,63.8,60.0,53.4,98,78,50,29.88,29.69,7,2,0,0.00
2012-4-7,83.1,69.3,54.7,65.9,61.2,54.1,98,78,52,30.02,29.88,6,2,0,0.00
2012-4-8,85.5,70.4,56.7,68.6,62.5,56.1,98,79,47,30.08,29.95,6,1,0,0.00
2012-4-9,74.5,64.2,59.0,65.6,61.5,58.4,98,91,73,30.00,29.95,4,1,0,0.00
2012-4-20,69.1,68.5,68.0,65.9,65.8,65.7,93,91,89,29.62,29.61,2,0,0,0.00
2012-4-21,68.2,62.6,51.6,65.8,60.0,51.1,98,91,77,29.75,29.52,12,4,0,0.04
2012-4-22,84.2,65.2,48.4,59.0,53.4,47.1,98,70,40,29.84,29.68,8,3,0,0.00
2012-4-23,72.9,60.9,47.8,50.6,47.5,44.5,97,64,38,29.96,29.83,13,3,0,0.00
2012-4-24,81.5,63.2,43.0,55.6,49.4,42.5,98,66,35,29.95,29.80,7,2,0,0.00
2012-4-25,85.5,70.7,52.0,68.0,61.7,51.4,98,76,47,29.86,29.77,10,4,0,0.01
2012-4-26,86.9,73.5,62.2,70.8,67.0,61.7,98,82,56,29.87,29.78,10,3,0,0.00
2012-4-27,86.2,73.7,63.1,71.4,66.5,62.6,98,80,55,29.87,29.78,9,2,0,0.00
2012-4-28,87.3,73.9,61.3,72.9,66.8,60.8,98,80,52,29.85,29.78,7,2,0,0.00
2012-4-29,88.5,74.7,60.3,75.3,69.5,59.7,98,85,62,29.92,29.83,6,2,0,0.00
2012-4-30,91.0,77.7,66.9,75.8,70.3,66.3,98,81,49,29.95,29.83,6,2,0,0.00
2012-5-1,89.6,74.6,63.3,75.6,69.5,62.7,98,86,58,29.89,29.78,9,2,0,0.00
2012-5-2,69.6,68.7,67.8,69.0,68.1,67.2,98,98,98,29.78,29.70,3,1,0,0.00
2012-5-3,92.7,79.2,68.4,77.6,73.3,67.8,98,84,55,29.84,29.76,5,2,0,0.02
2012-5-4,92.3,80.9,69.3,77.8,73.7,68.7,98,81,56,29.88,29.77,6,1,0,0.00
2012-5-5,91.8,80.8,70.5,78.0,74.0,69.9,98,81,58,29.82,29.70,7,2,0,0.00
2012-5-6,92.3,79.6,68.2,77.4,73.2,67.6,98,83,57,29.80,29.68,5,2,0,0.00
2012-5-7,91.0,76.7,67.3,76.7,71.8,66.7,98,87,57,29.76,29.63,13,2,0,1.90
2012-5-8,89.4,75.5,65.1,75.4,70.7,64.5,98,86,62,29.76,29.63,6,2,0,0.24
2012-5-9,84.0,75.1,66.6,75.1,70.0,64.5,98,85,63,29.77,29.67,8,2,0,0.00
2012-5-10,78.1,65.4,57.7,65.2,61.7,57.2,98,90,57,29.81,29.74,6,1,0,0.00
2012-5-11,72.0,67.1,62.8,71.1,66.3,62.2,98,98,94,29.85,29.72,6,2,0,0.17
2012-5-12,68.4,68.2,68.2,67.8,67.6,67.6,98,98,98,29.82,29.80,4,3,0,0.00
2012-5-15,72.1,71.0,70.0,68.9,68.4,67.9,93,92,89,29.83,29.82,0,0,0,0.00
2012-5-16,88.7,76.8,66.2,71.6,67.6,63.6,98,77,44,29.85,29.73,7,2,0,0.00
2012-5-18,70.0,69.8,69.6,66.9,66.8,66.6,91,90,89,29.79,29.79,0,0,0,0.00
2012-5-19,91.6,79.0,64.2,73.4,68.6,63.6,98,74,46,29.86,29.76,7,1,0,0.00
2012-5-20,92.3,79.2,66.0,75.6,68.9,64.9,98,74,43,29.93,29.82,7,2,0,0.00
2012-5-21,95.9,80.2,66.0,72.9,68.9,64.3,98,72,43,29.92,29.78,6,2,0,0.00
2012-5-22,97.0,79.6,64.4,72.8,69.5,63.8,98,75,38,29.84,29.66,6,2,0,0.00
2012-5-23,92.8,79.1,66.4,77.4,71.6,65.8,98,80,49,29.70,29.60,8,2,0,0.00
2012-5-24,92.8,80.4,66.2,76.5,70.5,65.6,98,75,44,29.73,29.61,11,3,0,0.00
2012-5-25,85.1,79.4,66.2,76.5,73.1,65.6,98,82,73,29.86,29.71,7,4,0,0.00
2012-5-26,85.1,85.1,85.1,75.4,75.4,75.4,73,73,73,29.86,29.86,7,7,0,0.00
2012-5-27,98.2,86.8,78.3,79.9,76.6,75.3,95,73,51,29.86,29.72,7,4,0,0.00
2012-5-28,98.1,84.7,72.1,77.1,75.0,71.5,98,76,49,29.78,29.67,7,2,0,0.00
2012-5-29,97.5,83.7,72.7,77.0,73.3,70.1,98,74,43,29.76,29.66,7,2,0,0.00
2012-5-30,97.3,83.6,73.2,79.9,76.1,72.6,98,80,50,29.75,29.59,7,2,0,0.00
2012-5-31,90.3,78.4,70.3,79.2,74.0,69.7,98,87,61,29.68,29.61,10,2,0,0.65
2012-6-1,89.2,76.0,39.6,73.2,66.4,29.5,98,76,38,29.77,29.64,7,2,0,0.00
2012-6-2,95.7,75.9,58.5,69.0,62.9,57.9,98,68,35,29.85,29.73,6,2,0,0.00
2012-6-3,95.9,80.8,66.7,79.0,72.4,66.2,98,78,50,29.84,29.74,9,2,0,0.00
2012-6-4,96.4,83.6,72.5,78.8,75.5,71.9,98,79,51,29.78,29.62,8,2,0,0.00
2012-6-5,93.2,81.0,77.0,78.2,77.5,76.4,98,91,60,29.63,29.56,5,3,0,0.00
2012-6-7,75.4,71.5,70.5,74.2,70.9,69.9,98,98,96,29.74,29.70,10,2,0,0.74
2012-6-8,88.3,75.9,69.8,79.5,73.5,69.2,98,93,72,29.75,29.65,7,2,0,1.55
2012-6-9,86.4,76.1,71.6,79.5,74.8,71.0,98,96,78,29.69,29.60,6,3,0,1.90
2012-6-10,88.0,77.6,72.9,80.3,75.4,72.3,98,94,76,29.75,29.61,6,2,0,0.18
2012-6-11,94.3,84.0,74.5,82.7,79.6,73.9,98,88,68,29.91,29.74,10,3,0,0.00
2012-6-12,86.4,76.0,69.1,78.3,73.4,68.5,98,92,70,29.99,29.76,11,2,0,0.24
2012-6-13,97.9,81.1,68.7,78.0,74.3,68.1,98,82,53,29.87,29.73,6,1,0,0.00
2012-6-14,89.2,75.6,69.3,77.5,73.4,68.7,98,94,68,29.86,29.75,7,2,0,0.07
2012-6-15,91.0,76.4,68.4,78.1,72.6,67.8,98,89,61,29.87,29.80,5,1,0,0.08
2012-6-16,90.5,79.2,68.0,78.6,72.5,67.4,98,82,57,29.92,29.82,9,3,0,0.00
2012-6-17,88.0,77.7,68.4,78.4,73.5,67.8,98,88,70,29.87,29.73,7,2,0,0.00
2012-6-18,84.9,77.2,72.9,79.6,75.2,72.3,98,94,76,29.80,29.71,6,1,0,0.13
2012-6-19,91.2,81.4,72.7,79.9,74.9,72.1,98,82,59,29.87,29.78,9,3,0,0.00
2012-6-20,91.0,80.0,68.2,77.6,72.5,67.6,98,80,52,29.87,29.78,8,2,0,0.00
2012-6-21,93.9,81.2,69.3,77.4,73.2,68.7,98,79,51,29.84,29.71,7,2,0,0.00
2012-6-22,99.1,83.3,68.9,78.6,74.2,68.3,98,77,48,29.75,29.62,7,2,0,0.00
2012-6-23,97.2,85.1,73.8,80.7,77.3,73.2,98,80,55,29.70,29.63,8,2,0,0.00
2012-6-24,99.0,83.9,74.3,85.8,78.3,73.7,98,85,54,29.72,29.60,7,2,0,0.00
2012-6-25,102.9,87.8,75.9,80.1,74.3,70.0,98,68,37,29.63,29.47,8,2,0,0.00
2012-6-26,104.7,88.8,74.8,77.8,73.5,70.1,95,64,36,29.60,29.49,8,2,0,0.00
2012-6-27,101.3,88.2,75.2,80.0,75.1,69.7,90,67,42,29.81,29.60,5,2,0,0.00
2012-6-28,100.4,87.2,75.2,83.6,78.4,74.6,98,78,50,29.90,29.80,5,2,0,0.01
2012-6-29,98.4,87.7,78.1,82.9,78.7,75.6,98,77,51,29.86,29.71,5,2,0,0.00
2012-6-30,98.8,86.2,74.7,80.9,76.6,68.5,98,76,44,29.80,29.71,6,2,0,0.00
2012-7-1,96.8,85.9,75.2,81.9,77.9,74.6,98,79,52,29.88,29.77,7,2,0,0.00
2012-7-2,97.5,90.3,83.1,79.4,76.6,72.8,82,65,48,29.90,29.83,6,2,0,0.00
2012-7-3,99.0,85.3,74.3,80.0,76.0,73.7,98,76,50,29.90,29.76,8,2,0,0.00
2012-7-4,96.4,82.5,74.7,81.5,77.0,74.1,98,85,56,29.89,29.80,5,1,0,0.00
2012-7-5,97.3,84.7,72.7,81.3,76.3,72.1,98,78,52,29.91,29.78,5,1,0,0.00
2012-7-6,93.4,80.3,73.8,82.0,77.0,73.2,98,91,66,29.86,29.79,9,1,0,0.37
2012-7-7,94.6,80.7,72.1,80.2,75.9,71.5,98,87,56,29.87,29.77,6,2,0,0.00
2012-7-8,74.5,73.5,72.7,73.9,72.9,72.1,98,98,98,29.86,29.80,0,0,0,0.00
2012-7-9,90.1,80.5,72.9,82.8,75.6,72.3,98,86,61,29.86,29.75,10,2,0,0.00
2012-7-10,86.9,76.8,72.3,78.5,75.0,71.7,98,95,72,29.83,29.72,9,2,0,0.57
2012-7-11,74.3,73.5,72.5,73.7,72.9,71.9,98,98,98,29.79,29.76,2,0,0,0.00
2012-7-12,92.3,78.8,72.0,83.1,75.8,71.4,98,92,66,29.84,29.77,7,2,0,0.71
2012-7-13,88.3,76.7,72.0,79.0,74.6,71.4,98,94,69,29.86,29.77,8,2,0,0.18
2012-7-14,93.7,81.0,70.2,83.4,76.5,69.6,98,88,60,29.86,29.77,4,1,0,0.07
2012-7-15,93.7,80.8,74.7,82.2,78.0,74.1,98,92,66,29.88,29.80,6,1,0,0.40
2012-7-16,93.2,82.2,73.6,83.4,78.0,73.0,98,88,66,29.89,29.78,4,1,0,0.00
2012-7-17,98.4,85.5,72.9,83.0,78.1,72.3,98,81,55,29.85,29.72,4,1,0,0.00
2012-7-18,101.3,85.2,74.8,83.1,78.4,74.2,98,82,53,29.90,29.77,11,2,0,0.17
2012-7-19,96.4,81.0,74.1,83.4,76.9,73.5,98,89,59,29.94,29.85,13,2,0,0.02
2012-7-20,93.9,78.6,72.0,84.4,76.3,71.4,98,93,71,29.88,29.78,8,2,0,1.15
2012-7-21,83.3,76.7,72.0,80.4,75.8,71.4,98,97,86,29.88,29.77,6,1,0,0.11
2012-7-22,93.7,81.7,73.4,81.6,77.3,72.8,98,88,62,29.93,29.82,7,2,0,0.00
2012-7-23,95.0,82.8,74.1,83.4,78.0,73.5,98,87,58,29.98,29.89,6,1,0,0.00
2012-7-24,97.7,84.8,73.6,83.8,78.5,73.0,98,83,56,29.96,29.82,8,1,0,0.00
2012-7-25,96.3,83.2,75.2,84.5,79.2,74.6,98,89,60,29.87,29.77,10,1,0,1.49
2012-7-26,93.7,82.6,75.4,84.7,78.8,74.8,98,89,71,29.85,29.75,8,1,0,0.12
2012-7-27,92.5,82.7,74.8,85.5,79.6,74.2,98,91,71,29.88,29.81,6,2,0,0.00
2012-7-28,93.0,81.1,77.9,84.3,77.5,-99.9,98,94,70,29.92,29.82,8,2,0,0.01
2012-7-29,101.7,86.4,74.7,83.4,79.2,74.1,98,82,49,29.88,29.76,7,1,0,0.01
2012-7-30,101.3,88.5,79.0,85.2,81.8,78.4,98,83,56,29.86,29.74,4,2,0,0.00
2012-7-31,99.1,86.8,78.1,84.0,81.1,77.5,98,85,56,29.84,29.75,6,2,0,0.00
2012-8-1,100.9,87.3,79.9,83.9,81.4,79.3,98,85,55,29.83,29.71,4,2,0,0.00
2012-8-2,93.9,85.8,76.6,85.2,81.6,76.0,98,88,72,29.80,29.68,6,1,0,0.00
2012-8-3,99.5,84.6,76.3,85.2,78.6,58.2,98,84,49,29.79,29.69,9,2,0,0.00
2012-8-4,95.7,83.4,76.3,84.0,79.1,75.7,98,88,62,29.86,29.73,8,2,0,0.00
2012-8-5,92.8,79.7,73.8,82.5,76.7,73.2,98,92,67,29.94,29.84,8,1,0,2.28
2012-8-6,97.7,83.3,72.9,82.8,77.3,72.3,98,84,56,29.90,29.76,6,1,0,0.02
2012-8-7,91.9,80.3,73.2,82.4,77.3,72.6,98,91,73,29.82,29.75,5,1,0,0.01
2012-8-8,95.4,84.6,75.6,84.7,79.2,75.0,98,85,67,29.84,29.74,8,2,0,0.00
2012-8-9,91.2,78.9,73.2,84.8,76.8,72.6,98,94,76,29.80,29.69,8,1,0,0.63
2012-8-10,92.7,82.6,73.4,85.2,80.1,72.8,98,92,78,29.75,29.61,8,3,0,0.00
2012-8-11,95.4,81.9,74.3,83.3,78.6,73.7,98,91,66,29.80,29.67,9,1,0,0.67
2012-8-12,95.5,82.7,74.1,83.3,78.2,73.5,98,88,57,29.85,29.75,7,1,0,0.00
2012-8-13,94.5,85.0,75.0,84.5,80.0,74.4,98,86,65,29.86,29.74,10,3,0,0.00
2012-8-14,96.8,86.8,78.1,84.8,81.9,77.5,98,86,65,29.80,29.69,10,3,0,0.00
2012-8-15,96.6,87.3,76.5,86.1,81.1,75.9,98,84,59,29.83,29.72,7,2,0,0.01
2012-8-16,94.5,84.5,76.6,84.4,79.8,74.7,98,87,60,29.87,29.76,7,2,0,0.00
2012-8-17,95.5,82.1,75.2,84.8,78.7,74.6,98,90,63,29.84,29.73,11,2,0,0.00
2012-8-18,88.9,75.4,72.3,84.0,74.5,71.7,98,97,81,29.78,29.69,14,1,0,2.87
2012-8-19,79.9,75.3,71.8,79.3,74.7,71.2,98,98,98,29.78,29.62,6,1,0,0.48
2012-8-20,93.6,79.0,68.7,79.6,74.5,68.1,98,88,59,29.73,29.65,6,1,0,0.00
2012-8-21,86.9,78.1,69.3,80.2,75.4,68.7,98,92,74,29.85,29.70,8,2,0,0.00
2012-8-22,90.7,79.8,71.2,76.5,73.0,70.6,98,82,56,29.90,29.81,7,2,0,0.00
2012-8-23,90.5,79.8,69.1,78.6,74.3,68.5,98,85,62,29.90,29.81,7,2,0,0.00
2012-8-24,88.5,77.9,72.0,82.1,76.3,71.4,98,95,74,29.87,29.79,12,2,0,0.87
2012-8-25,91.0,77.3,71.6,82.2,75.0,71.0,98,93,74,29.85,29.79,6,2,0,0.01
2012-8-26,86.4,74.6,72.0,82.5,73.7,71.4,98,97,84,29.90,29.81,6,1,0,0.00
2012-8-27,93.2,82.9,71.6,77.8,74.4,71.0,98,78,54,29.83,29.64,10,2,0,0.00
2012-8-28,88.7,82.0,77.2,81.2,77.7,73.9,94,87,77,29.64,29.35,19,8,0,0.00
2012-8-29,81.1,79.3,76.8,78.9,77.8,76.2,98,95,89,29.34,29.04,24,13,0,0.32
2012-9-1,93.6,82.1,76.6,92.6,81.5,76.0,98,98,96,29.90,29.88,7,1,0,0.00
2012-9-2,92.1,81.9,75.7,91.5,81.3,75.1,98,98,98,29.92,29.77,8,1,0,0.21
2012-9-3,97.2,84.9,77.4,96.5,84.2,76.7,98,98,98,29.84,29.73,6,2,0,0.00
2012-9-4,98.4,84.9,77.4,97.8,84.3,76.7,98,98,98,29.80,29.69,7,3,0,0.00
2012-9-5,100.2,84.8,77.5,99.5,84.2,76.9,98,98,98,29.75,29.63,7,2,0,0.00
2012-9-6,101.5,84.5,76.3,98.7,83.8,75.7,98,98,86,29.76,29.65,7,2,0,0.20
2012-9-7,95.0,83.1,75.0,94.3,82.5,74.4,98,98,98,29.74,29.61,6,1,0,0.00
2012-9-8,93.4,80.8,72.7,92.7,80.2,72.1,98,98,98,29.79,29.63,8,2,0,0.00
2012-9-9,86.0,73.5,62.6,79.3,69.3,62.0,98,88,57,29.88,29.76,9,2,0,0.00
2012-9-10,88.5,71.8,59.5,78.2,66.6,59.0,98,86,53,29.93,29.84,7,2,0,0.00
2012-9-11,89.6,82.3,72.3,84.3,76.5,71.0,98,84,57,29.92,29.86,7,2,0,0.00
2012-9-12,89.2,80.7,69.4,88.1,79.5,68.8,98,96,75,29.94,29.84,6,2,0,0.10
2012-9-13,90.3,79.3,71.8,89.3,78.7,71.2,98,98,92,29.96,29.86,12,2,0,0.00
2012-9-14,86.0,73.4,69.3,85.4,72.8,68.7,98,98,98,29.97,29.91,5,1,0,0.00
2012-9-15,93.4,77.8,66.7,85.4,74.6,66.2,98,91,58,29.94,29.84,8,1,0,0.00
2012-9-16,90.9,78.5,68.7,87.2,77.3,68.1,98,96,77,29.87,29.71,6,1,0,0.00
2012-9-17,83.3,75.3,70.3,82.7,74.7,69.7,98,98,98,29.74,29.49,4,1,0,0.49
2012-9-18,86.5,75.4,69.8,85.0,74.6,69.2,98,98,84,29.84,29.57,7,2,0,0.41
2012-9-19,82.9,69.7,60.8,70.8,65.5,60.2,98,88,58,29.92,29.83,6,2,0,0.00
2012-9-20,88.5,71.2,57.2,79.4,67.7,56.6,98,90,60,29.91,29.79,5,1,0,0.00
2012-9-21,90.9,75.4,62.6,84.3,72.1,62.0,98,91,63,29.86,29.75,7,1,0,0.00
2012-9-22,93.2,77.6,65.1,86.8,75.7,64.5,98,94,65,29.91,29.81,4,1,0,0.00
2012-9-23,70.5,69.7,68.9,69.9,69.1,68.3,98,98,98,29.91,29.90,0,0,0,0.00
2012-9-24,91.9,83.6,72.9,89.9,82.5,72.3,98,96,77,29.97,29.86,6,2,0,0.00
2012-9-25,89.6,78.1,70.0,87.3,76.9,69.4,98,96,78,29.92,29.83,7,1,0,0.00
2012-9-26,89.8,76.0,64.2,84.1,73.7,63.6,98,93,63,29.97,29.84,7,1,0,0.00
2012-9-27,89.4,77.7,67.3,84.6,75.3,66.7,98,93,71,29.95,29.83,5,1,0,0.00
2012-9-28,87.4,76.0,71.1,86.8,75.4,70.5,98,98,98,29.88,29.77,7,1,0,1.72
2012-9-29,81.1,74.8,72.9,80.5,74.2,72.3,98,98,98,29.80,29.65,5,1,0,1.09
2012-9-30,85.3,76.9,68.4,84.6,76.3,67.8,98,98,98,29.64,29.33,11,3,0,1.91
2012-10-1,70.2,64.3,60.6,69.6,63.8,60.1,98,98,98,29.60,29.37,6,2,0,0.06
2012-10-2,86.5,68.9,57.0,74.2,64.1,56.5,98,87,48,29.80,29.58,6,1,0,0.00
2012-10-3,85.8,69.8,59.2,81.1,68.1,58.6,98,95,66,29.94,29.79,10,2,0,0.14
2012-10-4,87.1,73.2,63.0,81.6,70.7,62.4,98,93,66,30.03,29.93,6,1,0,0.00
2012-10-5,92.7,74.2,64.4,83.6,70.1,63.8,98,89,53,29.97,29.80,4,1,0,0.00
2012-10-6,84.6,71.8,60.3,83.9,71.2,59.7,98,98,98,29.87,29.77,7,2,0,0.00
2012-10-7,66.9,58.6,53.6,66.3,58.1,53.0,98,98,98,29.97,29.87,10,4,0,0.00
2012-10-8,71.6,59.2,51.4,67.3,57.4,50.9,98,94,71,30.01,29.90,9,2,0,0.00
2012-10-9,82.2,62.1,48.4,72.0,58.9,47.8,98,91,54,29.98,29.81,5,1,0,0.00
2012-10-10,86.4,73.8,57.2,83.6,71.9,56.6,98,94,75,29.98,29.87,6,1,0,0.00
2012-10-11,87.8,73.1,63.0,82.7,70.8,62.4,98,93,69,30.05,29.95,6,1,0,0.00
2012-10-12,87.4,72.1,61.2,82.4,70.4,60.6,98,95,71,30.07,29.98,6,1,0,0.00
2012-10-13,88.2,73.9,62.8,85.5,72.0,62.2,98,94,70,30.03,29.87,6,1,0,0.00
2012-10-14,89.4,77.5,68.4,86.3,76.4,67.8,98,97,78,29.95,29.79,7,2,0,0.00
2012-10-15,83.7,72.3,58.8,78.4,69.0,58.3,98,91,57,29.86,29.74,8,2,0,0.08
2012-10-16,79.9,66.6,54.0,76.4,63.7,53.4,98,92,59,29.81,29.65,8,2,0,0.00
2012-10-17,86.0,73.2,60.1,85.4,72.6,59.5,98,98,98,29.66,29.51,8,2,0,0.00
2012-10-18,82.9,73.0,57.2,75.0,63.5,47.8,98,77,31,29.75,29.53,10,3,0,0.17
2012-10-19,83.7,63.7,49.6,63.1,51.9,42.4,98,74,26,29.78,29.67,7,1,0,0.00
2012-10-20,90.0,63.4,46.0,69.6,53.7,45.5,98,78,28,29.83,29.72,5,1,0,0.00
2012-10-21,86.0,67.1,51.6,73.9,61.4,51.1,98,85,47,29.90,29.79,5,1,0,0.00
2012-10-22,84.7,69.0,55.2,80.2,66.0,54.7,98,92,58,29.94,29.83,7,2,0,0.00
2012-10-23,88.5,73.2,63.9,82.7,71.0,63.3,98,94,61,29.90,29.79,7,1,0,0.00
2012-10-24,86.4,75.3,64.6,81.8,73.5,64.0,98,95,72,29.91,29.77,6,1,0,0.00
2012-10-25,81.0,81.0,81.0,80.3,80.3,80.3,98,98,98,29.79,29.79,0,0,0,0.00
2012-10-26,76.3,61.2,53.4,75.7,60.6,52.9,98,98,98,29.89,29.76,10,6,0,0.00
2012-10-27,62.6,53.5,46.6,61.3,52.9,46.0,98,98,88,29.91,29.80,10,4,0,0.00
2012-10-28,65.8,51.1,39.4,52.3,45.4,38.9,98,84,47,29.99,29.87,8,2,0,0.00
2012-10-29,65.3,50.8,38.8,52.5,43.6,38.3,98,81,41,30.05,29.91,11,3,0,0.00
2012-10-30,74.1,52.1,34.9,53.8,41.7,34.4,98,74,37,29.94,29.80,7,1,0,0.00
2012-11-7,50.7,48.9,46.4,50.2,48.4,45.9,98,98,98,29.99,29.96,3,1,0,0.00
2012-11-8,70.0,51.8,38.1,58.8,47.2,37.6,98,87,52,30.09,29.97,7,1,0,0.00
2012-11-9,77.4,58.7,40.5,73.0,56.8,39.9,98,94,65,30.07,29.96,7,2,0,0.00
2012-11-10,80.1,64.8,51.3,77.1,63.5,50.7,98,96,73,30.04,29.93,8,2,0,0.00
2012-11-11,80.4,70.6,59.7,79.8,70.0,59.2,98,98,98,29.94,29.85,12,3,0,0.26
2012-11-12,69.4,58.7,42.4,68.8,58.1,41.9,98,98,98,30.21,29.89,11,5,0,0.77
2012-11-13,57.0,44.6,36.9,48.6,41.5,36.3,98,90,51,30.27,30.12,10,3,0,0.00
2012-11-14,63.9,49.1,37.8,49.8,42.4,37.2,98,82,43,30.17,30.06,8,2,0,0.00
2012-11-15,49.6,41.8,36.1,49.1,41.2,35.6,98,98,98,30.10,30.07,3,1,0,0.00
2012-11-16,54.1,44.8,40.3,53.6,44.3,39.8,98,98,98,30.13,30.07,7,1,0,0.00
2012-11-17,51.4,45.7,42.3,50.9,45.2,41.7,98,98,98,30.15,30.10,0,0,0,0.00
2012-11-18,69.1,51.5,37.9,56.6,46.3,37.4,98,85,50,30.15,30.05,9,1,0,0.00
2012-11-19,73.9,55.0,40.5,64.5,51.3,39.9,98,89,58,30.12,29.98,7,1,0,0.00
2012-11-20,75.7,58.6,44.4,66.3,52.8,43.9,98,84,46,30.04,29.93,7,1,0,0.00
2012-11-21,78.4,58.1,43.0,75.9,53.6,42.5,98,88,43,30.05,29.94,6,1,0,0.00
2012-11-22,77.4,57.6,48.6,64.0,52.5,48.0,98,86,43,30.05,29.95,5,0,0,0.00
2012-11-23,78.8,61.6,46.4,74.2,59.5,45.9,98,94,66,30.08,29.98,8,2,0,0.00
2012-11-24,63.9,50.6,36.3,57.5,45.5,35.8,98,85,47,30.16,30.01,8,2,0,0.00
2012-11-25,70.9,49.8,30.9,57.5,44.7,30.4,98,86,46,30.03,29.89,6,1,0,0.00
2012-11-26,74.8,61.4,46.9,74.2,60.8,46.4,98,98,98,29.93,29.84,11,2,0,0.01
2012-11-27,64.8,53.6,47.1,64.2,53.0,46.6,98,98,98,30.13,29.85,8,3,0,0.01
2012-11-28,65.1,50.7,39.0,56.3,45.4,38.5,98,85,44,30.26,30.12,9,2,0,0.00
2012-11-29,69.3,50.7,34.2,61.8,48.4,33.7,98,93,65,30.17,30.03,6,2,0,0.00
2012-11-30,75.2,57.4,44.6,73.5,56.0,44.1,98,95,71,30.09,29.98,6,1,0,0.00
2012-12-1,75.6,58.4,47.1,75.0,57.8,46.6,98,98,98,30.07,29.97,5,1,0,0.00
2012-12-2,82.0,66.9,54.1,79.3,65.3,53.6,98,95,69,30.08,29.97,7,2,0,0.00
2012-12-3,81.5,68.1,55.9,80.9,67.5,55.4,98,98,94,30.02,29.91,11,2,0,0.00
2012-12-4,70.9,65.8,63.3,70.3,65.2,62.7,98,98,98,30.04,29.93,5,1,0,1.00
2012-12-5,63.3,62.3,60.6,62.7,61.7,60.1,98,98,98,29.96,29.84,5,2,0,2.34
2012-12-6,72.7,65.0,60.3,72.1,64.5,59.7,98,98,98,29.84,29.73,5,1,0,0.00
2012-12-7,78.4,65.2,56.3,74.8,63.3,55.7,98,94,60,29.79,29.68,5,1,0,0.00
2012-12-8,79.0,65.8,56.8,77.6,64.6,56.3,98,96,76,29.80,29.70,8,1,0,0.01
2012-12-9,79.9,68.2,54.7,79.3,67.6,54.1,98,98,98,29.80,29.68,11,2,0,0.00
2012-12-10,72.1,58.8,43.5,71.5,58.2,43.0,98,98,98,29.84,29.56,11,4,0,1.39
2012-12-11,49.1,42.8,37.6,47.3,41.9,37.1,98,97,83,30.00,29.83,8,3,0,0.00
2012-12-12,59.0,43.7,32.7,44.6,35.9,26.1,98,80,30,30.14,29.99,8,2,0,0.00
2012-12-13,63.7,55.1,31.1,44.7,41.2,30.6,98,62,49,30.17,30.06,7,2,0,0.00
2012-12-14,68.9,61.4,55.9,66.3,50.3,44.2,98,70,51,30.06,29.87,7,3,0,0.00
2012-12-15,75.7,66.1,54.5,75.1,65.5,53.9,98,98,98,29.89,29.74,7,2,0,0.00
2012-12-16,77.2,65.0,59.2,76.6,64.4,58.6,98,98,98,29.77,29.61,17,3,0,0.52
2012-12-17,73.0,61.5,47.5,68.8,60.4,46.9,98,97,74,29.74,29.58,8,2,0,1.51
2012-12-18,74.7,54.3,39.4,60.9,49.4,38.9,98,87,46,29.84,29.74,6,1,0,0.00
2012-12-19,79.0,62.9,43.7,77.6,62.0,43.2,98,97,80,29.82,29.62,14,3,0,0.01
2012-12-20,74.5,60.5,41.5,73.9,53.9,29.9,98,81,50,30.13,29.59,14,6,0,0.51
2012-12-21,59.5,44.2,33.6,39.9,29.0,19.1,98,61,23,30.29,30.13,10,2,0,0.00
2012-12-22,66.7,46.1,29.3,47.2,36.7,28.7,98,77,25,30.24,30.06,6,1,0,0.00
2012-12-23,67.6,58.2,43.2,67.1,57.6,42.6,98,98,98,30.04,29.76,7,2,0,0.00
2012-12-24,79.3,67.4,55.0,77.6,66.0,54.5,98,95,70,29.76,29.64,12,3,0,0.00
2012-12-25,75.0,63.4,47.7,74.4,62.8,47.1,98,98,98,29.66,29.26,14,5,0,1.07
2012-12-26,49.6,42.2,38.1,48.6,41.6,37.6,98,98,92,29.99,29.61,11,5,0,0.00
2012-12-27,52.3,44.5,35.1,51.8,44.0,34.6,98,98,98,30.02,29.87,7,3,0,0.00
2012-12-28,69.3,57.3,46.8,68.7,56.7,46.2,98,98,98,29.87,29.49,10,4,0,2.30
2012-12-29,51.4,43.5,35.6,46.2,40.0,35.1,98,89,58,30.25,29.81,10,4,0,0.00
2012-12-30,52.7,42.5,27.5,36.9,34.2,27.0,98,75,54,30.36,30.20,9,4,0,0.00
2012-12-31,61.5,54.9,46.0,60.9,49.5,36.6,98,84,56,30.20,29.84,7,4,0,0.00
2013-1-1,66.9,58.1,49.5,66.3,57.6,48.9,98,98,98,29.92,29.71,12,3,0,1.98